Time;durP1;ratioP1;P1;durP2;ratioP2;P2;SDS_P1;SDS_P2;PMS_P1;PMS_P2;Temp;Humidity;BMP_temperature;BMP_pressure;BME280_temperature;BME280_humidity;BME280_pressure;Samples;Min_cycle;Max_cycle;Signal;HPM_P1;HPM_P2
2021/10/30 00:00:07;;;;;;;46.90;33.40;;;10.50;65.40;;;;;;4993700;28;20030;-71
2021/10/30 00:02:32;;;;;;;47.90;33.37;;;10.40;65.30;;;;;;4993535;28;20023;-72
2021/10/30 00:04:58;;;;;;;45.38;33.83;;;10.40;65.50;;;;;;4993410;28;20054;-72
2021/10/30 00:07:24;;;;;;;49.07;33.77;;;10.40;65.70;;;;;;4993217;28;20084;-71
2021/10/30 00:09:50;;;;;;;41.45;31.95;;;10.50;70.70;;;;;;4993738;28;20033;-71
2021/10/30 00:12:15;;;;;;;41.43;32.57;;;10.40;65.60;;;;;;4993794;28;20030;-72
2021/10/30 00:14:43;;;;;;;42.60;33.10;;;10.30;65.60;;;;;;4993580;28;20026;-71
2021/10/30 00:17:10;;;;;;;44.27;32.67;;;10.30;65.70;;;;;;4993496;28;20475;-71
2021/10/30 00:19:36;;;;;;;42.03;32.60;;;10.20;65.90;;;;;;4993681;28;20026;-71
2021/10/30 00:22:02;;;;;;;43.20;32.67;;;10.20;65.90;;;;;;4993471;28;20056;-71
2021/10/30 00:24:27;;;;;;;42.80;32.80;;;10.20;65.90;;;;;;4993610;28;20471;-71
2021/10/30 00:26:53;;;;;;;43.97;32.63;;;10.10;66.20;;;;;;4993361;28;20030;-71
2021/10/30 00:29:19;;;;;;;40.23;31.87;;;10.10;66.20;;;;;;4993162;28;20026;-71
2021/10/30 00:31:44;;;;;;;41.50;32.25;;;10.10;66.50;;;;;;4992925;28;20102;-72
2021/10/30 00:34:10;;;;;;;43.40;32.10;;;10.10;66.30;;;;;;4993354;28;20035;-71
2021/10/30 00:36:36;;;;;;;43.40;32.30;;;10.00;66.40;;;;;;4993484;28;20027;-71
2021/10/30 00:39:02;;;;;;;43.83;31.77;;;10.00;66.20;;;;;;4993125;28;20018;-72
2021/10/30 00:41:28;;;;;;;39.37;31.50;;;10.00;66.10;;;;;;4993534;28;20034;-72
2021/10/30 00:43:54;;;;;;;45.53;32.50;;;10.00;66.20;;;;;;4993388;28;20594;-72
2021/10/30 00:46:20;;;;;;;43.37;33.17;;;9.90;66.00;;;;;;4992302;28;20027;-72
2021/10/30 00:48:46;;;;;;;47.07;32.30;;;9.90;66.20;;;;;;4994849;28;20034;-72
2021/10/30 00:51:13;;;;;;;43.50;33.57;;;9.80;66.50;;;;;;4997064;28;20027;-71
2021/10/30 00:53:39;;;;;;;45.63;32.77;;;9.80;66.60;;;;;;4996759;28;20026;-72
2021/10/30 00:56:05;;;;;;;42.97;32.10;;;9.80;66.70;;;;;;4997168;28;20360;-71
2021/10/30 00:58:36;;;;;;;43.93;32.50;;;9.80;66.80;;;;;;4995202;28;20041;-72
2021/10/30 01:01:04;;;;;;;42.33;31.63;;;9.80;66.80;;;;;;4994005;28;20117;-71
2021/10/30 01:03:31;;;;;;;40.23;30.50;;;9.80;66.70;;;;;;4992340;28;20479;-72
2021/10/30 01:05:57;;;;;;;43.20;32.13;;;9.70;66.70;;;;;;4996424;28;20030;-72
2021/10/30 01:08:23;;;;;;;47.70;33.17;;;9.70;66.80;;;;;;4996489;28;20081;-71
2021/10/30 01:10:49;;;;;;;44.47;32.13;;;9.70;69.60;;;;;;4996475;28;20041;-71
2021/10/30 01:13:15;;;;;;;39.17;30.57;;;9.70;70.80;;;;;;4996571;28;20053;-71
2021/10/30 01:15:41;;;;;;;41.67;31.60;;;9.70;71.60;;;;;;4996612;28;20050;-72
2021/10/30 01:18:07;;;;;;;44.20;32.90;;;9.70;71.10;;;;;;4996540;28;20070;-72
2021/10/30 01:20:33;;;;;;;41.63;33.13;;;9.70;70.40;;;;;;4996466;28;20431;-72
2021/10/30 01:23:00;;;;;;;41.97;31.70;;;9.60;69.70;;;;;;4996673;28;20054;-72
2021/10/30 01:25:26;;;;;;;40.93;32.03;;;9.60;70.10;;;;;;4996532;28;20026;-72
2021/10/30 01:27:53;;;;;;;47.63;32.13;;;9.60;70.80;;;;;;4996069;28;20113;-72
2021/10/30 01:30:21;;;;;;;39.90;30.53;;;9.60;73.60;;;;;;4996596;28;20026;-71
2021/10/30 01:32:55;;;;;;;44.17;32.07;;;9.60;73.30;;;;;;4996506;28;20026;-72
2021/10/30 01:35:27;;;;;;;46.60;32.10;;;9.50;73.40;;;;;;4996198;28;20066;-71
2021/10/30 01:37:54;;;;;;;43.33;31.77;;;9.50;76.30;;;;;;4996373;28;20019;-72
2021/10/30 01:40:21;;;;;;;37.37;29.97;;;9.40;76.80;;;;;;4996094;28;20026;-72
2021/10/30 01:42:54;;;;;;;42.20;30.37;;;9.50;77.00;;;;;;4996091;28;20471;-72
2021/10/30 01:45:20;;;;;;;44.00;31.10;;;9.50;76.50;;;;;;4996242;28;20111;-72
2021/10/30 01:47:46;;;;;;;39.07;29.80;;;9.50;76.30;;;;;;4996165;28;20042;-72
2021/10/30 01:50:14;;;;;;;41.70;30.47;;;9.40;75.80;;;;;;4994649;28;20026;-72
2021/10/30 01:52:41;;;;;;;43.73;29.67;;;9.40;75.20;;;;;;4995943;28;20541;-71
2021/10/30 01:55:11;;;;;;;39.13;29.67;;;9.40;74.70;;;;;;4996088;28;20054;-72
2021/10/30 01:57:37;;;;;;;40.50;28.83;;;9.50;75.00;;;;;;4995704;28;20034;-72
2021/10/30 02:00:09;;;;;;;41.23;29.33;;;9.50;75.30;;;;;;4995284;28;20038;-72
2021/10/30 02:02:35;;;;;;;40.43;28.77;;;9.50;74.60;;;;;;4995853;28;20081;-71
2021/10/30 02:05:02;;;;;;;37.43;27.60;;;9.50;74.90;;;;;;4995795;28;20126;-71
2021/10/30 02:07:27;;;;;;;37.80;28.67;;;9.40;74.10;;;;;;4995578;28;20052;-71
2021/10/30 02:09:53;;;;;;;39.03;27.40;;;9.50;74.10;;;;;;4995774;28;20382;-71
2021/10/30 02:12:19;;;;;;;37.93;29.47;;;9.40;74.10;;;;;;4995577;28;20038;-72
2021/10/30 02:14:45;;;;;;;40.40;28.30;;;9.30;76.30;;;;;;4995678;28;20046;-71
2021/10/30 02:17:11;;;;;;;38.20;28.23;;;9.20;87.80;;;;;;4996190;28;20044;-71
2021/10/30 02:19:37;;;;;;;39.57;27.00;;;9.20;85.90;;;;;;4994437;28;20081;-70
2021/10/30 02:22:03;;;;;;;40.47;27.43;;;9.20;83.40;;;;;;4994455;28;20033;-71
2021/10/30 02:24:29;;;;;;;40.03;28.37;;;9.20;78.90;;;;;;4995224;28;20041;-71
2021/10/30 02:26:54;;;;;;;36.53;26.97;;;9.30;77.60;;;;;;4995200;28;20034;-71
2021/10/30 02:29:20;;;;;;;39.17;27.97;;;9.20;77.20;;;;;;4995287;28;20033;-71
2021/10/30 02:31:46;;;;;;;33.77;26.77;;;9.20;75.20;;;;;;4995432;28;20026;-71
2021/10/30 02:34:11;;;;;;;40.47;28.90;;;9.20;74.40;;;;;;4995240;28;20109;-71
2021/10/30 02:36:37;;;;;;;38.10;27.53;;;9.20;72.70;;;;;;4995121;28;20026;-71
2021/10/30 02:39:03;;;;;;;36.97;27.27;;;9.10;70.80;;;;;;4995265;28;20471;-71
2021/10/30 02:41:29;;;;;;;39.17;27.83;;;9.00;68.60;;;;;;4995218;28;20033;-71
2021/10/30 02:43:54;;;;;;;36.13;26.00;;;9.00;68.50;;;;;;4995108;28;20027;-70
2021/10/30 02:46:20;;;;;;;36.17;25.97;;;9.00;68.80;;;;;;4995005;28;20098;-71
2021/10/30 02:48:46;;;;;;;36.33;27.33;;;9.10;73.30;;;;;;4995099;28;20598;-71
2021/10/30 02:51:11;;;;;;;35.93;25.57;;;9.10;73.00;;;;;;4995113;28;20022;-71
2021/10/30 02:53:37;;;;;;;35.57;26.60;;;9.10;72.50;;;;;;4994992;28;20033;-71
2021/10/30 02:56:03;;;;;;;38.37;26.00;;;9.10;73.10;;;;;;4994393;28;20105;-71
2021/10/30 02:58:29;;;;;;;36.80;26.27;;;9.00;72.60;;;;;;4994923;28;20467;-71
2021/10/30 03:00:55;;;;;;;34.93;24.87;;;9.00;70.40;;;;;;4994960;28;20475;-70
2021/10/30 03:03:21;;;;;;;33.63;25.03;;;8.80;68.60;;;;;;4993417;28;20022;-71
2021/10/30 03:05:46;;;;;;;31.17;24.33;;;8.70;68.70;;;;;;4994879;28;20034;-71
2021/10/30 03:08:12;;;;;;;31.37;23.57;;;8.70;68.80;;;;;;4994805;28;20054;-70
2021/10/30 03:10:38;;;;;;;31.90;24.50;;;8.70;68.80;;;;;;4994442;28;20471;-71
2021/10/30 03:13:03;;;;;;;36.83;25.23;;;8.70;68.70;;;;;;4994543;28;20034;-71
2021/10/30 03:15:29;;;;;;;34.43;25.30;;;8.80;68.80;;;;;;4994701;28;20102;-71
2021/10/30 03:17:55;;;;;;;32.77;25.73;;;8.70;68.50;;;;;;4994546;28;20467;-71
2021/10/30 03:20:20;;;;;;;33.33;25.47;;;8.70;68.70;;;;;;4994761;28;20023;-71
2021/10/30 03:22:46;;;;;;;36.30;25.67;;;8.70;68.60;;;;;;4993290;28;20467;-71
2021/10/30 03:25:12;;;;;;;34.10;25.63;;;8.60;68.50;;;;;;4994290;28;20023;-71
2021/10/30 03:27:38;;;;;;;38.33;27.30;;;8.60;68.70;;;;;;4994093;28;20054;-71
2021/10/30 03:30:06;;;;;;;40.30;28.73;;;8.60;69.70;;;;;;4994290;28;20033;-71
2021/10/30 03:32:32;;;;;;;40.80;29.43;;;8.60;71.00;;;;;;4994132;28;20027;-70
2021/10/30 03:34:58;;;;;;;34.13;25.33;;;8.60;71.10;;;;;;4994468;28;20027;-71
2021/10/30 03:37:25;;;;;;;36.23;26.37;;;8.80;69.90;;;;;;4994070;28;20106;-71
2021/10/30 03:39:52;;;;;;;36.17;26.53;;;8.80;68.70;;;;;;4993897;28;20372;-71
2021/10/30 03:42:18;;;;;;;36.77;26.67;;;8.80;68.10;;;;;;4994298;28;20427;-71
2021/10/30 03:44:43;;;;;;;35.50;27.30;;;8.70;68.00;;;;;;4994203;28;20022;-71
2021/10/30 03:47:09;;;;;;;36.97;26.70;;;8.70;68.00;;;;;;4993849;28;20403;-71
2021/10/30 03:49:35;;;;;;;36.50;28.13;;;8.60;67.80;;;;;;4993810;28;20084;-71
2021/10/30 03:52:00;;;;;;;37.90;28.23;;;8.60;67.90;;;;;;4994074;28;20387;-71
2021/10/30 03:54:26;;;;;;;37.47;28.93;;;8.60;68.00;;;;;;4994050;28;20030;-71
2021/10/30 03:56:52;;;;;;;37.23;29.20;;;8.50;68.10;;;;;;4994013;28;20442;-71
2021/10/30 03:59:18;;;;;;;37.67;28.63;;;8.50;68.20;;;;;;4993681;28;20034;-71
2021/10/30 04:01:44;;;;;;;38.37;28.27;;;8.50;68.30;;;;;;4993631;28;20030;-71
2021/10/30 04:04:09;;;;;;;40.27;28.33;;;8.40;68.50;;;;;;4993321;28;20038;-71
2021/10/30 04:06:35;;;;;;;36.70;29.17;;;8.40;68.80;;;;;;4993702;28;20498;-71
2021/10/30 04:09:01;;;;;;;41.07;29.03;;;8.40;68.80;;;;;;4993723;28;20034;-71
2021/10/30 04:11:27;;;;;;;38.23;28.20;;;8.30;69.00;;;;;;4993796;28;20037;-71
2021/10/30 04:13:52;;;;;;;43.60;30.13;;;8.30;69.00;;;;;;4993730;28;20378;-71
2021/10/30 04:16:18;;;;;;;42.77;29.43;;;8.30;69.10;;;;;;4993536;28;20026;-71
2021/10/30 04:18:44;;;;;;;40.43;29.47;;;8.30;69.20;;;;;;4993689;28;20077;-71
2021/10/30 04:21:11;;;;;;;37.67;28.80;;;8.20;69.20;;;;;;4992653;28;20483;-71
2021/10/30 04:23:37;;;;;;;40.80;28.33;;;8.20;69.10;;;;;;4996844;28;20030;-71
2021/10/30 04:26:03;;;;;;;42.10;29.30;;;8.20;69.30;;;;;;5000304;28;20434;-71
2021/10/30 04:28:29;;;;;;;39.73;29.47;;;8.20;69.20;;;;;;4999698;28;20112;-70
2021/10/30 04:30:58;;;;;;;41.83;28.67;;;8.20;69.30;;;;;;4999914;28;20022;-71
2021/10/30 04:33:24;;;;;;;39.90;29.57;;;8.10;69.70;;;;;;5000046;28;20081;-71
2021/10/30 04:35:49;;;;;;;40.20;29.67;;;8.10;70.00;;;;;;4999762;28;20026;-71
2021/10/30 04:38:15;;;;;;;41.90;29.40;;;8.00;70.50;;;;;;4999934;28;20562;-71
2021/10/30 04:40:41;;;;;;;42.30;30.43;;;8.00;70.50;;;;;;4999923;28;20042;-72
2021/10/30 04:43:08;;;;;;;40.13;28.87;;;8.00;70.50;;;;;;4998954;28;20042;-71
2021/10/30 04:45:34;;;;;;;37.87;29.27;;;8.10;70.40;;;;;;5000000;28;20100;-71
2021/10/30 04:48:00;;;;;;;39.93;28.50;;;8.10;70.40;;;;;;4999923;28;20041;-72
2021/10/30 04:50:26;;;;;;;37.20;28.70;;;8.10;70.30;;;;;;4999894;28;20054;-72
2021/10/30 04:52:52;;;;;;;38.70;27.77;;;8.00;70.40;;;;;;4999951;28;20026;-71
2021/10/30 04:55:17;;;;;;;41.80;29.43;;;8.00;70.70;;;;;;4999935;28;20022;-71
2021/10/30 04:57:43;;;;;;;37.50;28.37;;;8.00;70.90;;;;;;5000032;28;20038;-71
2021/10/30 05:00:09;;;;;;;34.73;28.03;;;8.00;70.70;;;;;;4999922;28;20538;-72
2021/10/30 05:02:35;;;;;;;38.87;29.10;;;8.00;70.70;;;;;;4999879;28;20034;-71
2021/10/30 05:05:01;;;;;;;36.63;27.93;;;8.00;70.80;;;;;;4999839;28;20388;-71
2021/10/30 05:07:26;;;;;;;37.63;29.27;;;8.00;71.20;;;;;;4999429;28;20026;-71
2021/10/30 05:09:52;;;;;;;39.50;29.93;;;8.00;70.90;;;;;;4998583;28;20417;-71
2021/10/30 05:12:18;;;;;;;37.87;28.43;;;8.00;71.00;;;;;;4999917;28;20023;-72
2021/10/30 05:14:43;;;;;;;41.77;28.37;;;8.00;70.90;;;;;;4999847;28;20034;-71
2021/10/30 05:17:09;;;;;;;38.67;28.97;;;8.00;71.00;;;;;;4999414;28;20467;-72
2021/10/30 05:19:34;;;;;;;40.37;26.80;;;8.00;71.10;;;;;;4998350;28;20034;-71
2021/10/30 05:22:00;;;;;;;34.77;26.87;;;8.00;71.10;;;;;;4999630;28;20027;-71
2021/10/30 05:24:26;;;;;;;37.30;26.27;;;8.00;71.00;;;;;;4999527;28;20106;-71
2021/10/30 05:26:51;;;;;;;35.63;26.30;;;8.10;71.00;;;;;;4999675;28;20014;-72
2021/10/30 05:29:17;;;;;;;40.07;26.87;;;8.10;71.20;;;;;;4999637;28;20022;-72
2021/10/30 05:31:43;;;;;;;37.20;26.10;;;8.10;71.70;;;;;;4999382;28;20118;-72
2021/10/30 05:34:08;;;;;;;38.43;25.80;;;8.10;72.00;;;;;;4997975;28;20038;-71
2021/10/30 05:36:36;;;;;;;34.27;25.83;;;8.20;72.00;;;;;;4995316;28;20062;-71
2021/10/30 05:39:11;;;;;;;41.90;27.23;;;8.20;72.00;;;;;;4994526;28;20475;-72
2021/10/30 05:41:36;;;;;;;38.20;27.93;;;8.20;71.60;;;;;;4996287;28;20026;-71
2021/10/30 05:44:03;;;;;;;39.03;27.43;;;8.20;71.20;;;;;;4995819;28;20023;-70
2021/10/30 05:46:29;;;;;;;36.97;26.67;;;8.20;71.00;;;;;;4995309;28;20041;-72
2021/10/30 05:48:56;;;;;;;38.50;27.40;;;8.20;71.10;;;;;;4995393;28;20044;-71
2021/10/30 05:51:22;;;;;;;41.17;28.33;;;8.10;71.20;;;;;;4995596;28;20030;-71
2021/10/30 05:53:47;;;;;;;40.73;27.27;;;8.00;71.30;;;;;;4995968;28;20036;-72
2021/10/30 05:56:13;;;;;;;38.13;27.20;;;8.00;71.50;;;;;;4995971;28;20034;-72
2021/10/30 05:58:39;;;;;;;38.97;27.07;;;7.90;71.70;;;;;;4995263;28;20041;-71
2021/10/30 06:01:05;;;;;;;38.47;24.70;;;7.90;72.10;;;;;;4995418;28;20057;-71
2021/10/30 06:03:30;;;;;;;38.93;25.33;;;7.90;71.90;;;;;;4995235;28;20033;-73
2021/10/30 06:05:56;;;;;;;36.87;25.90;;;7.90;71.90;;;;;;4993079;28;20030;-76
2021/10/30 06:08:22;;;;;;;40.17;26.40;;;7.90;72.40;;;;;;4991274;28;20038;-72
2021/10/30 06:10:48;;;;;;;35.90;25.53;;;7.90;72.80;;;;;;4994440;28;20499;-73
2021/10/30 06:13:14;;;;;;;33.63;24.10;;;7.90;72.60;;;;;;4995075;28;20030;-74
2021/10/30 06:15:39;;;;;;;34.17;25.10;;;7.90;72.50;;;;;;4994028;28;20022;-80
2021/10/30 06:18:05;;;;;;;38.90;25.90;;;8.00;72.40;;;;;;4995329;28;20108;-78
2021/10/30 06:20:31;;;;;;;33.40;24.57;;;8.00;72.40;;;;;;4995184;28;20030;-79
2021/10/30 06:22:57;;;;;;;34.30;25.00;;;8.10;72.30;;;;;;4993701;28;20014;-79
2021/10/30 06:25:23;;;;;;;42.77;25.57;;;8.10;72.00;;;;;;4992860;28;20458;-79
2021/10/30 06:27:48;;;;;;;33.73;24.10;;;8.20;72.10;;;;;;4992118;28;20141;-79
2021/10/30 06:30:14;;;;;;;33.27;24.97;;;8.20;72.00;;;;;;4995150;28;20018;-78
2021/10/30 06:32:40;;;;;;;30.50;24.03;;;8.20;72.10;;;;;;4993578;28;20030;-77
2021/10/30 06:35:06;;;;;;;34.70;23.73;;;8.20;72.10;;;;;;4992218;28;20106;-78
2021/10/30 06:37:33;;;;;;;35.13;24.83;;;8.30;72.00;;;;;;4993899;28;20030;-77
2021/10/30 06:39:59;;;;;;;36.07;26.47;;;8.30;71.90;;;;;;4995323;28;20026;-78
2021/10/30 06:42:25;;;;;;;40.57;28.23;;;8.30;71.90;;;;;;4995401;28;20061;-78
2021/10/30 06:44:51;;;;;;;41.93;30.60;;;8.30;72.10;;;;;;4995470;28;20387;-78
2021/10/30 06:47:17;;;;;;;42.50;31.27;;;8.40;72.50;;;;;;4994762;28;20022;-78
2021/10/30 06:49:42;;;;;;;42.87;31.37;;;8.40;73.00;;;;;;4995188;28;20069;-78
2021/10/30 06:52:09;;;;;;;29.60;22.30;;;8.30;73.50;;;;;;4994122;28;20026;-78
2021/10/30 06:54:35;;;;;;;29.07;21.33;;;8.40;73.30;;;;;;4994130;28;20053;-78
2021/10/30 06:57:01;;;;;;;32.37;22.13;;;8.50;73.20;;;;;;4995148;28;20026;-78
2021/10/30 06:59:29;;;;;;;29.60;20.90;;;8.60;73.60;;;;;;4995221;28;20034;-78
2021/10/30 07:01:54;;;;;;;25.17;19.13;;;8.70;74.10;;;;;;4994800;28;20502;-77
2021/10/30 07:04:20;;;;;;;26.17;19.63;;;8.80;73.60;;;;;;4995063;28;20051;-77
2021/10/30 07:06:46;;;;;;;29.30;19.43;;;8.90;73.30;;;;;;4995249;28;20108;-78
2021/10/30 07:09:12;;;;;;;29.50;19.07;;;9.10;86.00;;;;;;4995144;28;20025;-78
2021/10/30 07:11:37;;;;;;;25.90;17.43;;;9.20;89.30;;;;;;4994743;28;20030;-78
2021/10/30 07:14:03;;;;;;;24.53;17.57;;;9.30;91.60;;;;;;4995256;28;20439;-77
2021/10/30 07:16:29;;;;;;;23.03;17.33;;;9.30;73.10;;;;;;4994312;28;20619;-79
2021/10/30 07:18:55;;;;;;;21.53;15.63;;;9.30;73.00;;;;;;4993035;28;20026;-79
2021/10/30 07:21:21;;;;;;;24.47;18.30;;;9.40;72.30;;;;;;4993581;28;20081;-79
2021/10/30 07:23:47;;;;;;;27.73;21.07;;;;;;;;;;4994358;28;20486;-79
2021/10/30 07:26:12;;;;;;;30.43;20.60;;;9.60;70.80;;;;;;4994222;28;20542;-78
2021/10/30 07:28:39;;;;;;;28.50;21.50;;;9.80;71.40;;;;;;4992108;28;20042;-79
2021/10/30 07:31:05;;;;;;;35.97;21.80;;;9.90;83.30;;;;;;4993412;28;20022;-79
2021/10/30 07:33:30;;;;;;;30.90;21.90;;;10.00;75.20;;;;;;4994412;28;20030;-78
2021/10/30 07:35:56;;;;;;;30.13;22.20;;;9.90;72.80;;;;;;4994213;28;20033;-78
2021/10/30 07:38:23;;;;;;;31.83;22.03;;;9.90;72.20;;;;;;4993064;28;20034;-79
2021/10/30 07:40:49;;;;;;;26.23;20.00;;;10.00;72.00;;;;;;4993618;28;20022;-79
2021/10/30 07:43:15;;;;;;;26.07;19.33;;;10.10;72.30;;;;;;4994064;28;20064;-78
2021/10/30 07:45:42;;;;;;;31.13;20.57;;;;;;;;;;4993637;28;20058;-79
2021/10/30 07:48:08;;;;;;;28.00;19.37;;;10.20;71.80;;;;;;4993400;28;20045;-78
2021/10/30 07:50:35;;;;;;;25.27;18.30;;;10.30;71.60;;;;;;4993534;28;20482;-78
2021/10/30 07:53:02;;;;;;;26.07;18.67;;;10.50;79.10;;;;;;4993841;28;20031;-79
2021/10/30 07:55:29;;;;;;;26.20;18.47;;;10.40;69.70;;;;;;4994164;28;20483;-79
2021/10/30 07:57:54;;;;;;;24.17;17.97;;;10.60;73.50;;;;;;4993330;28;20364;-79
2021/10/30 08:00:20;;;;;;;26.87;17.60;;;10.60;68.30;;;;;;4993830;28;20084;-79
2021/10/30 08:02:46;;;;;;;24.67;18.60;;;10.70;67.70;;;;;;4994314;28;20022;-78
2021/10/30 08:05:12;;;;;;;22.67;17.67;;;10.70;67.00;;;;;;4994264;28;20046;-79
2021/10/30 08:07:38;;;;;;;23.88;17.73;;;10.80;66.60;;;;;;4994022;28;20037;-79
2021/10/30 08:10:06;;;;;;;22.48;16.33;;;10.80;66.20;;;;;;4993923;28;20022;-79
2021/10/30 08:12:33;;;;;;;19.05;15.65;;;10.90;66.00;;;;;;4994002;28;20609;-79
2021/10/30 08:15:00;;;;;;;22.90;17.52;;;11.00;65.70;;;;;;4993671;28;20036;-79
2021/10/30 08:17:26;;;;;;;22.67;17.38;;;11.00;65.80;;;;;;4993843;28;20026;-78
2021/10/30 08:19:52;;;;;;;22.50;17.58;;;11.10;65.20;;;;;;4993889;28;20503;-79
2021/10/30 08:22:17;;;;;;;20.77;16.80;;;11.20;65.00;;;;;;4993524;28;20029;-79
2021/10/30 08:24:45;;;;;;;23.70;16.17;;;11.30;64.90;;;;;;4993814;28;20427;-79
2021/10/30 08:27:11;;;;;;;22.27;16.60;;;11.30;64.70;;;;;;4993665;28;20471;-79
2021/10/30 08:29:37;;;;;;;24.70;16.77;;;11.40;64.70;;;;;;4993759;28;20479;-79
2021/10/30 08:32:04;;;;;;;20.95;16.98;;;11.40;64.50;;;;;;4993730;28;20113;-79
2021/10/30 08:34:30;;;;;;;24.17;17.80;;;11.50;64.60;;;;;;4993623;28;20548;-78
2021/10/30 08:36:55;;;;;;;25.33;17.40;;;11.60;64.60;;;;;;4993719;28;20034;-79
2021/10/30 08:39:21;;;;;;;26.63;18.58;;;;;;;;;;4993599;28;20064;-78
2021/10/30 08:41:48;;;;;;;22.58;16.80;;;;;;;;;;4993518;28;20076;-78
2021/10/30 08:44:14;;;;;;;23.77;17.20;;;11.80;63.70;;;;;;4993842;28;20031;-79
2021/10/30 08:46:40;;;;;;;21.63;17.40;;;11.80;64.10;;;;;;4993618;28;20064;-78
2021/10/30 08:49:10;;;;;;;22.08;15.93;;;11.90;64.10;;;;;;4993574;28;20042;-79
2021/10/30 08:51:36;;;;;;;21.15;16.00;;;;;;;;;;4993464;28;20423;-79
2021/10/30 08:54:02;;;;;;;20.45;15.18;;;12.20;89.80;;;;;;4993273;28;20494;-78
2021/10/30 08:56:27;;;;;;;17.80;13.95;;;12.10;64.40;;;;;;4992248;28;20053;-79
2021/10/30 08:58:53;;;;;;;21.25;14.63;;;;;;;;;;4993400;28;20022;-79
2021/10/30 09:01:19;;;;;;;21.58;15.48;;;12.30;64.00;;;;;;4992427;28;20121;-79
2021/10/30 09:03:58;;;;;;;19.80;14.35;;;12.30;64.30;;;;;;4993329;28;20074;-79
2021/10/30 09:06:39;;;;;;;20.35;15.70;;;12.40;65.20;;;;;;4993250;28;20066;-78
2021/10/30 09:09:17;;;;;;;25.67;15.93;;;12.50;64.10;;;;;;4993692;28;20038;-79
2021/10/30 09:11:56;;;;;;;21.25;14.95;;;12.60;63.90;;;;;;4997296;28;20113;-79
2021/10/30 09:14:24;;;;;;;23.58;15.98;;;12.60;63.90;;;;;;4995750;28;20105;-79
2021/10/30 09:17:09;;;;;;;23.25;15.10;;;;;;;;;;4994049;28;20088;-79
2021/10/30 09:19:35;;;;;;;18.83;15.35;;;12.80;62.70;;;;;;4994722;28;20027;-79
2021/10/30 09:22:05;;;;;;;25.63;17.38;;;12.80;63.00;;;;;;4996883;28;20038;-79
2021/10/30 09:24:31;;;;;;;22.45;16.63;;;12.90;62.90;;;;;;4996800;28;20077;-79
2021/10/30 09:26:57;;;;;;;24.23;15.60;;;13.00;62.80;;;;;;4996734;28;20053;-79
2021/10/30 09:29:22;;;;;;;22.15;15.77;;;13.10;62.30;;;;;;4996753;28;20034;-78
2021/10/30 09:31:48;;;;;;;22.73;14.90;;;13.10;62.60;;;;;;4996644;28;20029;-79
2021/10/30 09:34:27;;;;;;;18.27;13.50;;;13.20;63.10;;;;;;4996944;28;20037;-79
2021/10/30 09:36:56;;;;;;;16.95;12.88;;;13.30;62.70;;;;;;4996499;28;20042;-78
2021/10/30 09:39:22;;;;;;;15.38;12.52;;;13.40;61.70;;;;;;4996252;28;20068;-78
2021/10/30 09:41:52;;;;;;;16.83;13.32;;;13.40;61.40;;;;;;4996472;28;20062;-79
2021/10/30 09:44:23;;;;;;;17.15;12.77;;;13.50;60.70;;;;;;4996451;28;20116;-79
2021/10/30 09:46:57;;;;;;;14.88;12.75;;;13.60;60.40;;;;;;4996968;28;20098;-79
2021/10/30 09:49:28;;;;;;;17.55;12.70;;;13.70;60.60;;;;;;4996194;28;20034;-78
2021/10/30 09:52:06;;;;;;;16.17;12.80;;;13.80;59.90;;;;;;4996565;28;20033;-79
2021/10/30 09:54:46;;;;;;;18.85;14.00;;;13.80;59.90;;;;;;4995112;28;20049;-78
2021/10/30 09:57:14;;;;;;;15.40;12.82;;;13.90;60.20;;;;;;4996110;28;20038;-79
2021/10/30 09:59:41;;;;;;;21.60;12.55;;;14.00;59.70;;;;;;4996381;28;20030;-79
2021/10/30 10:02:07;;;;;;;18.45;13.00;;;;;;;;;;4995027;28;20467;-79
2021/10/30 10:04:38;;;;;;;24.58;13.43;;;14.10;59.50;;;;;;4995709;28;20054;-78
2021/10/30 10:07:08;;;;;;;17.50;13.23;;;14.20;59.70;;;;;;4995969;28;20446;-78
2021/10/30 10:09:35;;;;;;;19.88;13.60;;;14.30;59.10;;;;;;4996048;28;20042;-79
2021/10/30 10:12:01;;;;;;;17.90;12.95;;;14.40;59.30;;;;;;4995930;28;20532;-78
2021/10/30 10:14:28;;;;;;;16.55;12.65;;;14.40;59.30;;;;;;4995912;28;20121;-80
2021/10/30 10:16:57;;;;;;;19.65;13.60;;;14.50;59.60;;;;;;4995771;28;20034;-79
2021/10/30 10:19:23;;;;;;;17.25;13.07;;;14.60;59.30;;;;;;4995870;28;20467;-79
2021/10/30 10:21:52;;;;;;;17.63;12.85;;;14.70;58.90;;;;;;4995281;28;20030;-79
2021/10/30 10:24:20;;;;;;;16.52;12.77;;;14.80;58.80;;;;;;4996037;28;20034;-78
2021/10/30 10:26:47;;;;;;;15.95;13.13;;;;;;;;;;4995893;28;20026;-78
2021/10/30 10:29:25;;;;;;;14.38;11.65;;;14.90;57.80;;;;;;4995530;28;20027;-79
2021/10/30 10:31:52;;;;;;;16.52;12.73;;;15.00;58.70;;;;;;4995853;28;20030;-79
2021/10/30 10:34:22;;;;;;;17.60;13.05;;;;;;;;;;4995722;28;20498;-78
2021/10/30 10:36:48;;;;;;;15.05;11.80;;;15.10;58.80;;;;;;4995684;28;20033;-78
2021/10/30 10:39:14;;;;;;;17.80;12.20;;;;;;;;;;4995349;28;20378;-78
2021/10/30 10:41:46;;;;;;;16.25;11.82;;;15.30;57.80;;;;;;4995360;28;20368;-79
2021/10/30 10:44:13;;;;;;;18.30;13.27;;;;;;;;;;4995640;28;20113;-78
2021/10/30 10:46:41;;;;;;;17.85;12.32;;;15.50;56.90;;;;;;4995588;28;20018;-79
2021/10/30 10:52:15;;;;;;;16.17;11.98;;;15.60;55.00;;;;;;4995507;28;20037;-77
2021/10/30 10:54:52;;;;;;;;;;;15.70;55.40;;;;;;4996197;28;20049;-78
2021/10/30 10:57:33;;;;;;;15.40;11.82;;;15.70;55.90;;;;;;4995286;28;19906;-79
2021/10/30 11:00:09;;;;;;;16.60;11.25;;;15.90;56.80;;;;;;4995001;28;20030;-79
2021/10/30 11:02:36;;;;;;;16.08;11.63;;;15.90;57.10;;;;;;4993590;28;20526;-79
2021/10/30 11:05:08;;;;;;;13.73;11.02;;;16.00;56.70;;;;;;4995091;28;20054;-79
2021/10/30 11:07:39;;;;;;;16.23;11.80;;;16.00;56.20;;;;;;4994855;28;20555;-79
2021/10/30 11:10:12;;;;;;;17.67;10.95;;;16.10;54.00;;;;;;4993658;28;20037;-79
2021/10/30 11:12:42;;;;;;;17.42;11.30;;;16.20;54.20;;;;;;4994800;28;20026;-79
2021/10/30 11:15:14;;;;;;;14.85;10.95;;;16.20;54.80;;;;;;4993968;28;20470;-78
2021/10/30 11:17:59;;;;;;;13.68;10.07;;;16.30;55.30;;;;;;4994815;28;20383;-79
2021/10/30 11:20:43;;;;;;;13.57;10.23;;;16.40;54.60;;;;;;4995147;28;20027;-79
2021/10/30 11:23:10;;;;;;;16.70;11.25;;;16.50;54.70;;;;;;4994788;28;20456;-79
2021/10/30 11:25:36;;;;;;;12.65;10.23;;;16.70;60.70;;;;;;4994916;28;20026;-79
2021/10/30 11:28:02;;;;;;;13.57;10.70;;;16.70;61.30;;;;;;4994318;28;20112;-79
2021/10/30 11:30:38;;;;;;;14.02;11.20;;;16.70;54.60;;;;;;4994585;28;20467;-78
2021/10/30 11:33:24;;;;;;;13.05;11.18;;;16.80;55.40;;;;;;4993593;28;20026;-78
2021/10/30 11:36:06;;;;;;;16.83;10.90;;;16.80;54.70;;;;;;4994567;28;20069;-78
2021/10/30 11:38:38;;;;;;;16.27;11.32;;;16.90;53.80;;;;;;4994569;28;20402;-79
2021/10/30 11:41:05;;;;;;;14.63;10.90;;;17.00;53.90;;;;;;4994335;28;20515;-78
2021/10/30 11:43:33;;;;;;;15.98;10.77;;;17.00;54.20;;;;;;4994253;28;20022;-79
2021/10/30 11:46:06;;;;;;;16.98;11.75;;;17.10;54.00;;;;;;4994512;28;20026;-79
2021/10/30 11:48:39;;;;;;;;;;;17.10;54.00;;;;;;4994715;28;20038;-79
2021/10/30 11:51:09;;;;;;;12.38;10.32;;;17.20;52.70;;;;;;4994231;28;19937;-78
2021/10/30 11:53:39;;;;;;;13.68;10.75;;;17.30;53.30;;;;;;4994181;28;20018;-78
2021/10/30 11:56:11;;;;;;;13.02;10.57;;;17.30;53.80;;;;;;5009339;28;20030;-78
2021/10/30 11:58:51;;;;;;;14.50;11.20;;;17.40;53.20;;;;;;4994153;28;20054;-78
2021/10/30 12:01:28;;;;;;;15.65;10.55;;;17.40;52.30;;;;;;4993662;28;20034;-78
2021/10/30 12:04:06;;;;;;;13.57;10.52;;;17.50;51.90;;;;;;4993020;28;20057;-78
2021/10/30 12:06:36;;;;;;;13.85;10.00;;;17.50;51.80;;;;;;4992385;28;20030;-78
2021/10/30 12:09:12;;;;;;;14.80;10.50;;;17.50;50.10;;;;;;4993444;28;20035;-78
2021/10/30 12:11:39;;;;;;;15.38;10.48;;;17.50;50.80;;;;;;4993527;28;20027;-78
2021/10/30 12:14:05;;;;;;;13.35;10.05;;;17.60;51.70;;;;;;4993583;28;20030;-78
2021/10/30 12:16:31;;;;;;;12.38;10.35;;;17.60;51.70;;;;;;4993673;28;20092;-79
2021/10/30 12:19:01;;;;;;;13.60;10.25;;;17.70;51.30;;;;;;4993672;28;20479;-79
2021/10/30 12:21:36;;;;;;;12.52;10.10;;;17.70;49.50;;;;;;4993618;28;20109;-79
2021/10/30 12:24:11;;;;;;;14.07;9.70;;;17.70;50.60;;;;;;4993269;28;20109;-78
2021/10/30 12:26:58;;;;;;;14.45;9.30;;;17.70;51.00;;;;;;4992456;28;20105;-79
2021/10/30 12:29:27;;;;;;;13.25;10.45;;;17.70;50.70;;;;;;4993824;28;20065;-79
2021/10/30 12:32:02;;;;;;;13.98;9.93;;;17.80;50.80;;;;;;4992340;28;20372;-79
2021/10/30 12:34:30;;;;;;;11.95;10.35;;;17.80;50.70;;;;;;4992292;28;20026;-79
2021/10/30 12:36:57;;;;;;;13.27;10.20;;;17.80;50.60;;;;;;4992762;28;20026;-78
2021/10/30 12:39:24;;;;;;;11.80;9.35;;;17.80;51.10;;;;;;4993583;28;20093;-80
2021/10/30 12:42:02;;;;;;;16.42;9.90;;;17.90;51.80;;;;;;4993748;28;20031;-79